Time;durP1;ratioP1;P1;durP2;ratioP2;P2;SDS_P1;SDS_P2;PMS_P1;PMS_P2;Temp;Humidity;BMP_temperature;BMP_pressure;BME280_temperature;BME280_humidity;BME280_pressure;Samples;Min_cycle;Max_cycle;Signal;HPM_P1;HPM_P2
2022/08/26 00:02:00;;;;;;;6.67;5.37;;;;;;;18.97;59.02;100580.94;2733103;97;21638;-75
2022/08/26 00:19:10;;;;;;;7.08;5.00;;;;;;;18.72;59.44;100563.86;2800009;98;21085;-76
2022/08/26 00:30:03;;;;;;;;;;;;;;;;;;;;;
2022/08/26 00:35:36;;;;;;;;;;;;;;;;;;;;;
2022/08/26 01:02:04;;;;;;;9.10;5.50;;;;;;;17.97;60.08;100573.92;2992178;93;21666;-75
2022/08/26 01:07:19;;;;;;;9.55;5.75;;;;;;;17.78;60.34;100575.50;3049575;90;21600;-75
2022/08/26 01:35:28;;;;;;;;;;;;;;;;;;;;;
2022/08/26 01:41:11;;;;;;;;;;;;;;;;;;;;;
2022/08/26 01:46:54;;;;;;;;;;;;;;;;;;;;;
2022/08/26 01:57:53;;;;;;;10.18;5.80;;;;;;;17.31;62.24;100569.14;2594270;104;21148;-75
2022/08/26 02:09:33;;;;;;;;;;;;;;;;;;;;;
2022/08/26 02:14:56;;;;;;;;;;;;;;;;;;;;;
2022/08/26 02:36:11;;;;;;;10.63;6.08;;;;;;;16.87;63.59;100560.06;2706669;103;21140;-85
2022/08/26 02:41:03;;;;;;;9.78;6.00;;;;;;;16.84;63.70;100560.09;2694995;103;21120;-85
2022/08/26 02:45:54;;;;;;;8.35;5.45;;;;;;;16.82;63.73;100559.21;2796122;98;21133;-85
2022/08/26 02:50:47;;;;;;;7.28;5.17;;;;;;;16.75;63.87;100563.20;2811293;98;21198;-85
2022/08/26 02:55:39;;;;;;;6.47;5.33;;;;;;;16.71;63.96;100565.44;2898938;92;21403;-85
2022/08/26 03:00:32;;;;;;;7.97;5.60;;;;;;;16.66;63.98;100563.76;3077409;88;20995;-85
2022/08/26 03:05:23;;;;;;;7.87;5.25;;;;;;;16.61;64.19;100562.48;3182148;87;21686;-85
2022/08/26 03:10:15;;;;;;;6.12;5.28;;;;;;;16.55;64.22;100559.48;3140610;88;21035;-84
2022/08/26 03:15:08;;;;;;;7.92;5.60;;;;;;;16.46;64.24;100556.95;3160443;88;20987;-85
2022/08/26 03:19:59;;;;;;;8.25;6.15;;;;;;;16.43;64.36;100556.11;3147866;88;22080;-85
2022/08/26 03:24:50;;;;;;;7.08;5.92;;;;;;;16.38;64.29;100559.66;3172872;87;20999;-85
2022/08/26 03:34:51;;;;;;;5.97;5.37;;;;;;;16.31;64.65;100554.05;3229894;85;20996;-85
2022/08/26 03:39:42;;;;;;;6.70;5.62;;;;;;;16.26;65.09;100561.08;3236566;86;20962;-85
2022/08/26 03:44:35;;;;;;;7.62;5.75;;;;;;;16.21;65.25;100556.31;3252098;86;21437;-85
2022/08/26 03:49:27;;;;;;;8.95;5.53;;;;;;;16.18;65.23;100558.95;3201193;87;21510;-85
2022/08/26 03:54:18;;;;;;;7.60;5.70;;;;;;;16.20;65.56;100554.56;3162958;87;21035;-85
2022/08/26 03:59:09;;;;;;;11.03;6.12;;;;;;;16.25;65.76;100552.77;3184739;88;21541;-85
2022/08/26 04:04:00;;;;;;;6.42;5.72;;;;;;;16.27;65.85;100545.75;3216238;87;20983;-85
2022/08/26 04:08:56;;;;;;;9.88;5.58;;;;;;;16.30;66.09;100544.42;3207207;87;21169;-85
2022/08/26 04:13:48;;;;;;;6.97;5.83;;;;;;;16.37;66.15;100538.23;3199961;88;21066;-85
2022/08/26 04:18:39;;;;;;;6.95;5.92;;;;;;;16.45;66.30;100534.66;3212728;87;21512;-85
2022/08/26 04:23:31;;;;;;;7.22;6.00;;;;;;;16.53;66.41;100534.16;3189568;87;21726;-85
2022/08/26 04:28:22;;;;;;;12.75;5.90;;;;;;;16.63;66.61;100538.39;3195359;88;21033;-85
2022/08/26 04:33:15;;;;;;;7.90;5.65;;;;;;;16.72;66.71;100537.00;3169314;88;21174;-85
2022/08/26 04:38:06;;;;;;;9.30;5.60;;;;;;;16.80;66.50;100542.61;3290160;85;21595;-85
2022/08/26 04:42:57;;;;;;;10.63;6.10;;;;;;;16.89;66.78;100546.47;3274279;83;21010;-85
2022/08/26 04:47:57;;;;;;;10.95;5.58;;;;;;;16.99;66.96;100548.11;3309081;84;21718;-85
2022/08/26 04:52:49;;;;;;;8.45;5.80;;;;;;;17.08;66.92;100551.93;3272375;85;21717;-85
2022/08/26 04:57:40;;;;;;;11.28;6.25;;;;;;;17.13;66.58;100551.43;3289552;85;21046;-85
2022/08/26 05:02:31;;;;;;;10.30;6.12;;;;;;;17.18;66.59;100551.35;3269866;85;21025;-85
2022/08/26 05:07:22;;;;;;;7.37;5.53;;;;;;;17.31;66.97;100550.74;3270785;85;21002;-85
2022/08/26 05:12:14;;;;;;;11.12;5.65;;;;;;;17.45;66.76;100557.98;3247098;85;21752;-85
2022/08/26 05:17:05;;;;;;;6.80;5.25;;;;;;;17.58;66.91;100547.30;3192261;84;21092;-85
2022/08/26 05:21:56;;;;;;;9.20;5.47;;;;;;;17.68;66.98;100555.48;3284488;85;21207;-85
2022/08/26 05:26:48;;;;;;;10.20;6.15;;;;;;;17.77;67.11;100550.09;3295758;85;20954;-85
2022/08/26 05:31:40;;;;;;;5.12;4.62;;;;;;;17.87;67.22;100546.46;3274336;85;21449;-85
2022/08/26 05:36:34;;;;;;;7.42;4.75;;;;;;;18.01;67.17;100547.98;3243256;85;21729;-85
2022/08/26 05:41:30;;;;;;;7.17;5.50;;;;;;;18.12;67.12;100547.80;3281857;85;21086;-86
2022/08/26 05:46:22;;;;;;;8.13;4.85;;;;;;;18.26;67.08;100554.59;3308357;85;21143;-85
2022/08/26 05:51:13;;;;;;;8.53;5.30;;;;;;;18.40;66.86;100557.41;3235273;85;21653;-86
2022/08/26 05:56:08;;;;;;;11.03;5.28;;;;;;;18.54;66.71;100562.44;3315974;84;21433;-86
2022/08/26 06:01:11;;;;;;;7.97;4.15;;;;;;;18.71;66.17;100566.05;3285145;85;20963;-86
2022/08/26 06:06:09;;;;;;;10.60;5.42;;;;;;;18.90;65.49;100562.20;3300621;85;21091;-86
2022/08/26 06:11:04;;;;;;;12.33;5.58;;;;;;;19.14;65.35;100559.99;3239510;84;21058;-86
2022/08/26 06:15:58;;;;;;;16.80;7.25;;;;;;;19.36;65.12;100555.98;3268355;85;21033;-85
2022/08/26 06:20:50;;;;;;;9.05;5.15;;;;;;;19.59;64.50;100556.78;3328482;84;21020;-86
2022/08/26 06:25:41;;;;;;;15.75;6.28;;;;;;;19.80;64.51;100548.00;3306588;84;20970;-86
2022/08/26 06:30:40;;;;;;;8.05;5.00;;;;;;;19.96;64.01;100544.08;3320948;84;21551;-86
2022/08/26 06:35:38;;;;;;;8.93;4.95;;;;;;;20.16;63.54;100547.53;3312038;84;21965;-86
2022/08/26 06:40:29;;;;;;;7.83;5.20;;;;;;;20.37;62.45;100549.19;3305476;84;20950;-86
2022/08/26 06:45:21;;;;;;;12.07;5.83;;;;;;;20.71;61.51;100553.59;3306871;84;21019;-86
2022/08/26 06:56:41;;;;;;;10.30;6.42;;;;;;;21.66;60.40;100552.63;3296260;85;21010;-86
2022/08/26 07:01:37;;;;;;;8.35;5.47;;;;;;;22.40;58.77;100557.69;3263396;85;21051;-83
2022/08/26 07:06:29;;;;;;;15.53;5.95;;;;;;;23.93;56.46;100556.84;3262630;84;21610;-84
2022/08/26 07:11:20;;;;;;;9.43;5.50;;;;;;;25.47;54.86;100555.89;3277350;84;21089;-84
2022/08/26 07:16:16;;;;;;;9.25;5.35;;;;;;;27.19;52.45;100555.59;3246101;85;21005;-83
2022/08/26 07:21:11;;;;;;;7.35;6.42;;;;;;;27.76;51.40;100547.94;3335782;83;20970;-84
2022/08/26 07:26:15;;;;;;;9.18;5.65;;;;;;;27.17;51.07;100553.48;3264616;85;22009;-83
2022/08/26 07:31:09;;;;;;;10.50;5.97;;;;;;;26.93;50.12;100551.18;3262685;84;21049;-84
2022/08/26 07:36:01;;;;;;;9.28;6.00;;;;;;;27.48;49.07;100555.80;3298867;85;20974;-83
2022/08/26 07:40:52;;;;;;;9.08;6.00;;;;;;;27.24;48.97;100548.19;3277195;85;21054;-84
2022/08/26 07:45:44;;;;;;;7.10;4.83;;;;;;;28.74;47.84;100537.72;3292972;84;20952;-85
2022/08/26 07:50:36;;;;;;;12.45;5.95;;;;;;;30.38;45.34;100539.60;3279548;85;21092;-85
2022/08/26 07:55:29;;;;;;;12.05;5.62;;;;;;;31.77;44.30;100535.09;3264654;84;20998;-86
2022/08/26 08:00:22;;;;;;;8.58;5.67;;;;;;;30.86;43.94;100532.74;3288722;84;20991;-85
2022/08/26 08:05:17;;;;;;;9.23;5.90;;;;;;;29.60;44.83;100541.66;3286234;85;21083;-82
2022/08/26 08:10:12;;;;;;;8.23;6.20;;;;;;;28.68;44.71;100538.97;3209270;87;21379;-83
2022/08/26 08:15:04;;;;;;;9.63;5.77;;;;;;;27.99;45.18;100531.55;3286359;84;21202;-82
2022/08/26 08:19:55;;;;;;;9.75;5.33;;;;;;;27.55;45.43;100533.15;3306795;85;21007;-82
2022/08/26 08:24:48;;;;;;;8.53;5.20;;;;;;;27.42;45.07;100534.77;3271850;85;21058;-85
2022/08/26 08:29:40;;;;;;;10.75;5.53;;;;;;;27.21;45.21;100527.00;3280131;85;20979;-84
2022/08/26 08:34:31;;;;;;;13.55;5.35;;;;;;;27.11;44.53;100524.45;3285973;84;20971;-83
2022/08/26 08:39:24;;;;;;;7.10;4.80;;;;;;;27.04;44.68;100517.73;3274631;84;21180;-83
2022/08/26 08:44:22;;;;;;;9.60;5.00;;;;;;;27.09;44.56;100521.86;3251027;85;21045;-83
2022/08/26 08:49:14;;;;;;;8.18;5.97;;;;;;;27.05;44.69;100512.80;3321328;84;21018;-83
2022/08/26 08:54:07;;;;;;;6.15;4.83;;;;;;;27.05;45.12;100504.80;3256154;85;20994;-85
2022/08/26 08:59:21;;;;;;;6.05;5.15;;;;;;;27.13;45.08;100503.88;3271903;84;20982;-84
2022/08/26 09:04:39;;;;;;;8.15;5.17;;;;;;;27.32;44.38;100498.41;3311274;84;21209;-83
2022/08/26 09:09:41;;;;;;;8.73;4.83;;;;;;;27.57;44.12;100493.86;3278890;85;21010;-82
2022/08/26 09:14:32;;;;;;;6.35;5.10;;;;;;;27.81;43.49;100490.70;3291729;85;21082;-81
2022/08/26 09:19:35;;;;;;;9.20;5.33;;;;;;;27.99;43.11;100491.02;3277165;85;21013;-87
2022/08/26 09:24:30;;;;;;;8.23;5.67;;;;;;;28.13;42.70;100488.37;3306367;85;20966;-81
2022/08/26 09:29:26;;;;;;;9.65;5.65;;;;;;;28.52;42.37;100486.86;3294644;85;22361;-83
2022/08/26 09:34:25;;;;;;;6.22;4.60;;;;;;;28.57;42.56;100484.44;3303726;85;21073;-83
2022/08/26 09:39:36;;;;;;;11.40;4.95;;;;;;;28.59;41.79;100479.85;3307264;85;21005;-83
2022/08/26 09:44:27;;;;;;;7.85;4.97;;;;;;;28.66;40.85;100482.52;3326873;84;20994;-83
2022/08/26 09:49:38;;;;;;;8.65;5.12;;;;;;;28.96;39.64;100482.89;3251388;85;20951;-83
2022/08/26 09:54:29;;;;;;;12.37;5.45;;;;;;;29.12;39.87;100470.23;3302248;85;20982;-84
2022/08/26 09:59:30;;;;;;;6.12;4.95;;;;;;;29.33;39.51;100469.81;3276802;84;21561;-84
2022/08/26 10:04:25;;;;;;;9.55;5.62;;;;;;;29.47;39.84;100451.02;3278064;84;21034;-85
2022/08/26 10:09:18;;;;;;;10.48;6.05;;;;;;;29.78;39.06;100463.26;3287059;85;21040;-85
2022/08/26 10:14:21;;;;;;;7.33;5.58;;;;;;;31.64;36.98;100459.05;3300397;85;21066;-88
2022/08/26 10:19:24;;;;;;;8.73;5.00;;;;;;;35.15;34.07;100448.92;3304835;85;21944;-83
2022/08/26 10:24:21;;;;;;;6.72;5.35;;;;;;;37.63;31.87;100454.13;3323852;84;20978;-87
2022/08/26 10:29:24;;;;;;;8.23;4.55;;;;;;;39.20;30.13;100456.77;3307424;85;22397;-84
2022/08/26 10:34:16;;;;;;;9.75;5.80;;;;;;;40.37;28.24;100445.19;3322642;84;20998;-83
2022/08/26 10:39:36;;;;;;;7.10;6.17;;;;;;;41.14;27.54;100443.16;3286536;83;20998;-86
2022/08/26 10:44:32;;;;;;;6.87;4.65;;;;;;;41.50;25.27;100446.66;3286383;84;20994;-86
2022/08/26 10:49:23;;;;;;;7.08;4.67;;;;;;;41.80;24.25;100442.66;3305505;85;21460;-87
2022/08/26 10:54:22;;;;;;;5.60;5.03;;;;;;;41.88;24.27;100441.22;3203279;85;21031;-95
2022/08/26 10:59:22;;;;;;;8.05;5.00;;;;;;;42.26;23.80;100429.73;3313137;85;20998;-86
2022/08/26 11:04:43;;;;;;;6.20;5.12;;;;;;;41.97;23.20;100432.44;3309694;85;20990;-86
2022/08/26 11:09:46;;;;;;;10.80;5.80;;;;;;;41.40;23.43;100424.23;3195232;87;21096;-85
2022/08/26 11:14:37;;;;;;;8.35;5.67;;;;;;;40.81;23.20;100425.61;3232252;87;21627;-86
2022/08/26 11:19:52;;;;;;;8.00;5.33;;;;;;;39.25;24.06;100417.17;3197851;88;21007;-86
2022/08/26 11:24:46;;;;;;;;;;;;;;;38.85;24.46;100417.91;3190565;87;21042;-88
2022/08/26 11:30:04;;;;;;;9.00;5.17;;;;;;;39.04;24.35;100412.20;3209079;87;20716;-90
2022/08/26 11:34:58;;;;;;;9.13;5.87;;;;;;;39.11;24.85;100412.92;3199007;87;21256;-88
2022/08/26 11:39:54;;;;;;;7.85;5.20;;;;;;;39.25;23.95;100413.61;3189199;87;21083;-87
2022/08/26 11:44:45;;;;;;;6.03;5.53;;;;;;;38.95;23.99;100402.31;3245445;85;21051;-88
2022/08/26 11:49:37;;;;;;;7.17;5.65;;;;;;;38.13;24.63;100397.42;3322927;84;21556;-88
2022/08/26 11:54:28;;;;;;;7.92;5.20;;;;;;;37.37;25.51;100404.27;3305064;84;21010;-87
2022/08/26 11:59:32;;;;;;;11.35;6.67;;;;;;;36.42;26.42;100394.73;3263499;85;21102;-85
2022/08/26 12:04:32;;;;;;;6.58;5.25;;;;;;;35.69;27.34;100379.94;3329876;84;21005;-85
2022/08/26 12:09:33;;;;;;;7.70;5.03;;;;;;;35.65;27.83;100381.23;3262021;85;21022;-83
2022/08/26 12:14:26;;;;;;;7.08;5.53;;;;;;;35.12;27.48;100380.31;3303831;84;21583;-86
2022/08/26 12:19:32;;;;;;;12.45;5.67;;;;;;;34.68;27.59;100375.73;3292002;85;20965;-86
2022/08/26 12:24:24;;;;;;;6.75;5.10;;;;;;;34.94;28.16;100366.14;3297350;84;21169;-86
2022/08/26 12:29:27;;;;;;;11.28;5.72;;;;;;;34.74;27.90;100355.81;3317404;84;21014;-86
2022/08/26 12:34:19;;;;;;;11.15;6.33;;;;;;;34.23;28.30;100355.92;3292973;85;21595;-84
2022/08/26 12:39:31;;;;;;;8.55;6.10;;;;;;;33.91;27.82;100352.83;3298301;84;21350;-86
2022/08/26 12:44:46;;;;;;;7.72;6.90;;;;;;;33.98;27.82;100344.09;3301830;84;21175;-88
2022/08/26 12:49:41;;;;;;;9.43;6.23;;;;;;;34.34;27.78;100340.97;3296934;84;21134;-86
2022/08/26 12:59:43;;;;;;;7.30;6.08;;;;;;;34.65;28.54;100321.53;3312082;84;21006;-84
2022/08/26 13:04:41;;;;;;;8.78;6.42;;;;;;;34.77;27.86;100320.95;3286795;84;21005;-83
2022/08/26 13:09:35;;;;;;;7.33;6.55;;;;;;;34.41;27.32;100311.60;3293368;85;20990;-84
2022/08/26 13:14:26;;;;;;;7.37;6.53;;;;;;;34.45;27.03;100311.67;3348174;83;21326;-84
2022/08/26 13:19:22;;;;;;;8.20;6.92;;;;;;;34.11;27.10;100310.61;3288603;85;20990;-84
2022/08/26 13:24:18;;;;;;;7.62;6.87;;;;;;;33.92;28.14;100300.63;3317228;84;20951;-86
2022/08/26 13:29:10;;;;;;;8.75;5.95;;;;;;;34.12;27.54;100298.34;3288050;85;20998;-85
2022/08/26 13:34:03;;;;;;;8.08;5.67;;;;;;;34.49;28.20;100296.42;3317154;85;21021;-88
2022/08/26 13:38:54;;;;;;;7.62;6.10;;;;;;;34.59;28.50;100292.88;3315108;85;21129;-85
2022/08/26 13:43:45;;;;;;;7.78;6.72;;;;;;;34.54;28.27;100293.33;3310663;85;20986;-90
2022/08/26 13:48:37;;;;;;;7.20;6.50;;;;;;;34.63;27.53;100287.55;3248872;84;20990;-85
2022/08/26 13:53:29;;;;;;;9.48;7.03;;;;;;;34.68;28.52;100281.23;3332488;84;21030;-84
2022/08/26 13:58:21;;;;;;;7.20;6.50;;;;;;;34.65;27.15;100288.30;3312607;84;21014;-84
2022/08/26 14:03:12;;;;;;;6.70;6.00;;;;;;;34.64;27.67;100282.52;3293705;84;21550;-84
2022/08/26 14:08:04;;;;;;;9.13;6.53;;;;;;;34.58;26.78;100273.66;3302970;84;20986;-83
2022/08/26 14:12:55;;;;;;;10.13;7.87;;;;;;;34.38;27.67;100277.66;3281165;84;21001;-84
2022/08/26 14:17:48;;;;;;;9.80;6.67;;;;;;;34.32;27.22;100278.20;3290712;84;21051;-84
2022/08/26 14:22:43;;;;;;;6.85;6.17;;;;;;;34.31;27.28;100270.61;3296321;84;20978;-85
2022/08/26 14:27:34;;;;;;;10.45;7.60;;;;;;;34.21;27.37;100272.93;3262893;84;21594;-84
2022/08/26 14:32:27;;;;;;;7.83;6.17;;;;;;;34.13;26.90;100279.83;3342859;83;20942;-85
2022/08/26 14:37:19;;;;;;;7.17;6.33;;;;;;;34.06;26.76;100281.37;3304303;84;21002;-86
2022/08/26 14:42:13;;;;;;;8.68;7.15;;;;;;;33.96;26.96;100269.19;3222736;84;21097;-85
2022/08/26 14:47:05;;;;;;;10.60;6.33;;;;;;;33.88;27.17;100261.45;3269904;85;27023;-86
2022/08/26 14:51:56;;;;;;;12.53;6.87;;;;;;;33.80;26.93;100256.23;3296128;84;21080;-85
2022/08/26 14:56:52;;;;;;;8.68;6.25;;;;;;;33.70;27.05;100245.05;3280170;85;20985;-85
2022/08/26 15:01:44;;;;;;;8.83;6.70;;;;;;;33.58;26.82;100254.52;3296393;84;20989;-88
2022/08/26 15:06:35;;;;;;;6.80;6.20;;;;;;;33.57;27.31;100254.18;3247611;85;22317;-88
2022/08/26 15:11:27;;;;;;;9.55;6.17;;;;;;;33.48;26.90;100248.72;3296589;84;21718;-88
2022/08/26 15:16:18;;;;;;;8.60;5.97;;;;;;;33.39;27.01;100241.82;3322304;84;21507;-89
2022/08/26 15:21:09;;;;;;;7.28;6.40;;;;;;;33.31;27.43;100252.39;3304637;84;21554;-90
2022/08/26 15:26:01;;;;;;;7.55;5.90;;;;;;;33.16;27.37;100249.66;3271142;85;21562;-89
2022/08/26 15:30:52;;;;;;;6.80;5.30;;;;;;;32.99;27.19;100243.84;3253419;84;21025;-89
2022/08/26 15:35:44;;;;;;;7.03;6.00;;;;;;;32.87;27.44;100242.19;3279602;84;21350;-90
2022/08/26 15:40:35;;;;;;;6.72;5.70;;;;;;;32.78;27.32;100235.73;3328470;83;21131;-91
2022/08/26 15:45:27;;;;;;;5.90;5.28;;;;;;;32.64;27.36;100235.58;3282936;84;21591;-91
2022/08/26 15:50:18;;;;;;;8.63;5.42;;;;;;;32.51;28.01;100230.80;3302741;84;21014;-87
2022/08/26 15:55:09;;;;;;;6.25;5.75;;;;;;;32.31;28.64;100228.42;3268598;84;20939;-89
2022/08/26 16:00:00;;;;;;;5.85;5.22;;;;;;;31.91;29.18;100236.53;3290805;84;21511;-89
2022/08/26 16:04:51;;;;;;;6.47;4.53;;;;;;;31.45;28.92;100232.08;3317248;84;21667;-88
2022/08/26 16:09:43;;;;;;;15.75;5.97;;;;;;;31.40;29.49;100236.95;3311632;84;21022;-88
2022/08/26 16:14:34;;;;;;;5.90;4.87;;;;;;;31.30;29.96;100233.27;3323214;84;20970;-88
2022/08/26 16:19:26;;;;;;;8.28;5.28;;;;;;;31.12;29.62;100233.75;3323341;84;21049;-88
2022/08/26 16:24:23;;;;;;;6.83;5.33;;;;;;;30.94;30.38;100227.08;3309269;84;21556;-88
2022/08/26 16:29:15;;;;;;;6.30;5.03;;;;;;;30.78;30.61;100230.92;3311975;84;21010;-88
2022/08/26 16:34:08;;;;;;;9.13;6.12;;;;;;;30.59;30.88;100214.48;3325925;84;22295;-88
2022/08/26 16:38:59;;;;;;;6.37;5.00;;;;;;;30.30;32.03;100226.87;3301808;85;21512;-88
2022/08/26 16:43:51;;;;;;;6.37;5.05;;;;;;;30.04;32.25;100220.23;3287912;85;21050;-88
2022/08/26 16:48:44;;;;;;;8.90;4.53;;;;;;;29.78;32.67;100222.59;3307460;85;22004;-83
2022/08/26 16:53:35;;;;;;;6.75;5.22;;;;;;;29.51;33.13;100220.02;3224638;84;21540;-85
2022/08/26 16:58:26;;;;;;;10.88;5.28;;;;;;;29.18;33.94;100223.59;3321713;84;21006;-88
2022/08/26 17:03:17;;;;;;;5.92;5.33;;;;;;;28.88;34.38;100223.83;3298162;84;21008;-88
2022/08/26 17:08:08;;;;;;;9.10;5.33;;;;;;;28.57;34.91;100225.89;3246508;84;21381;-86
2022/08/26 17:13:00;;;;;;;6.70;5.33;;;;;;;28.29;35.35;100228.14;3313330;84;21341;-86
2022/08/26 17:17:52;;;;;;;7.05;5.85;;;;;;;28.03;35.57;100229.84;3261008;85;21142;-86
2022/08/26 17:22:47;;;;;;;6.37;5.78;;;;;;;27.74;35.83;100234.69;3329923;83;21706;-87
2022/08/26 17:27:39;;;;;;;9.30;5.62;;;;;;;27.48;37.17;100239.45;3283275;84;22113;-82
2022/08/26 17:32:30;;;;;;;8.73;5.65;;;;;;;27.20;37.17;100238.41;3270787;84;21025;-81
2022/08/26 17:37:21;;;;;;;8.73;6.00;;;;;;;26.94;37.61;100235.48;3267356;85;21019;-81
2022/08/26 17:42:13;;;;;;;7.70;5.97;;;;;;;26.70;37.93;100236.91;3242867;85;21156;-81
2022/08/26 17:47:05;;;;;;;7.10;5.45;;;;;;;26.41;38.44;100239.41;3252628;85;20950;-81
2022/08/26 17:51:59;;;;;;;13.53;6.03;;;;;;;26.16;39.56;100239.45;3285078;84;21512;-81
2022/08/26 17:56:50;;;;;;;21.05;7.10;;;;;;;25.97;40.02;100244.08;3296042;84;20986;-82
2022/08/26 18:01:41;;;;;;;15.20;7.22;;;;;;;25.78;40.66;100248.20;3334548;83;21707;-81
2022/08/26 18:06:33;;;;;;;13.35;6.62;;;;;;;25.59;41.28;100246.97;3275765;84;22243;-80
2022/08/26 18:11:24;;;;;;;14.60;6.03;;;;;;;25.38;41.86;100241.86;3275600;84;20978;-81
2022/08/26 18:16:17;;;;;;;12.75;6.65;;;;;;;25.16;42.13;100244.72;3300994;83;21009;-81
2022/08/26 18:21:19;;;;;;;11.30;6.78;;;;;;;24.98;42.74;100251.83;3336629;84;21025;-81
2022/08/26 18:26:24;;;;;;;13.60;6.35;;;;;;;24.78;43.29;100249.32;3310297;85;20974;-80
2022/08/26 18:31:15;;;;;;;9.30;6.17;;;;;;;24.58;43.79;100249.83;3322736;84;22003;-81
2022/08/26 18:36:07;;;;;;;9.98;6.50;;;;;;;24.35;44.19;100247.77;3298282;85;20971;-81
2022/08/26 18:40:58;;;;;;;14.15;8.40;;;;;;;24.15;44.84;100255.84;3230557;85;20958;-80
2022/08/26 18:45:53;;;;;;;11.18;6.95;;;;;;;24.02;45.16;100252.02;3315414;84;21105;-80
2022/08/26 18:50:44;;;;;;;9.75;7.62;;;;;;;23.82;45.54;100256.92;3309112;84;20967;-80
2022/08/26 18:55:35;;;;;;;7.78;6.35;;;;;;;23.67;45.78;100254.47;3305369;84;21180;-80
2022/08/26 19:00:30;;;;;;;7.72;6.83;;;;;;;23.55;46.31;100254.06;3302474;84;21518;-81
2022/08/26 19:05:21;;;;;;;11.48;7.60;;;;;;;23.41;46.49;100253.80;3313578;84;21603;-80
2022/08/26 19:10:12;;;;;;;13.65;7.33;;;;;;;23.36;46.96;100259.80;3222692;84;21344;-80
2022/08/26 19:15:05;;;;;;;14.45;8.20;;;;;;;23.26;47.43;100261.97;3279979;84;21000;-80
2022/08/26 19:19:57;;;;;;;10.18;8.03;;;;;;;23.12;47.60;100257.72;3283885;84;21092;-80
2022/08/26 19:24:48;;;;;;;9.15;7.40;;;;;;;23.00;47.91;100257.73;3220628;85;21090;-80
2022/08/26 19:29:39;;;;;;;11.28;7.17;;;;;;;22.91;48.21;100259.45;3273320;85;20967;-80
2022/08/26 19:34:31;;;;;;;10.68;7.37;;;;;;;22.81;48.53;100258.51;3296079;85;21022;-81
2022/08/26 19:39:22;;;;;;;8.63;7.70;;;;;;;22.65;48.76;100258.73;3312155;84;21049;-80
2022/08/26 19:45:06;;;;;;;10.90;7.78;;;;;;;22.53;49.20;100256.58;3306934;84;21305;-81
2022/08/26 19:49:10;;;;;;;8.48;7.62;;;;;;;22.43;49.56;100262.72;3296919;84;21339;-81
2022/08/26 19:54:02;;;;;;;10.95;7.65;;;;;;;22.31;50.02;100260.08;3324351;84;21519;-80
2022/08/26 19:58:54;;;;;;;10.65;9.55;;;;;;;22.19;50.26;100257.40;3283967;84;21010;-80
2022/08/26 20:03:46;;;;;;;10.38;8.38;;;;;;;22.11;50.23;100266.58;3291801;84;22303;-80
2022/08/26 20:08:40;;;;;;;11.08;8.10;;;;;;;22.00;50.52;100270.48;3294966;84;21837;-81
2022/08/26 20:13:32;;;;;;;10.80;8.53;;;;;;;21.90;51.08;100273.06;3268430;84;21002;-81
2022/08/26 20:23:35;;;;;;;14.98;8.53;;;;;;;21.74;51.12;100269.27;3307518;85;20963;-81
2022/08/26 20:28:26;;;;;;;10.10;9.18;;;;;;;21.61;51.15;100275.00;3245821;85;20962;-82
2022/08/26 20:33:18;;;;;;;10.43;8.63;;;;;;;21.51;51.22;100270.94;3244313;85;22149;-82
2022/08/26 20:38:09;;;;;;;14.25;8.28;;;;;;;21.43;51.70;100272.98;3223830;84;21005;-82
2022/08/26 20:43:01;;;;;;;10.72;8.40;;;;;;;21.39;52.00;100279.27;3264070;84;21038;-82
2022/08/26 20:47:52;;;;;;;9.28;8.28;;;;;;;21.25;51.89;100275.34;3319847;84;21026;-82
2022/08/26 20:52:43;;;;;;;13.30;9.35;;;;;;;21.24;52.63;100276.23;3269270;84;20943;-82
2022/08/26 20:57:34;;;;;;;9.73;8.80;;;;;;;21.20;52.81;100282.55;3313215;84;21073;-82
2022/08/26 21:02:27;;;;;;;10.28;9.23;;;;;;;21.14;53.44;100284.95;3260050;84;21026;-82
2022/08/26 21:07:19;;;;;;;10.60;9.03;;;;;;;21.08;52.96;100278.53;3321450;83;21050;-83
2022/08/26 21:12:10;;;;;;;11.12;8.38;;;;;;;21.03;53.35;100283.57;3300492;84;21022;-83
2022/08/26 21:17:03;;;;;;;10.38;9.28;;;;;;;20.94;53.23;100290.91;3280484;85;21559;-83
2022/08/26 21:21:54;;;;;;;10.43;9.45;;;;;;;20.90;53.71;100287.08;3285591;84;21100;-83
2022/08/26 21:26:46;;;;;;;11.95;9.80;;;;;;;20.86;53.92;100286.78;3272560;85;21505;-83
2022/08/26 21:31:37;;;;;;;10.72;9.60;;;;;;;20.78;54.13;100284.36;3243357;84;21053;-83
2022/08/26 21:36:29;;;;;;;12.90;10.13;;;;;;;20.69;54.20;100285.55;3283465;84;21495;-83
2022/08/26 21:41:20;;;;;;;11.93;10.28;;;;;;;20.65;54.36;100281.26;3314132;84;21054;-83
2022/08/26 21:46:16;;;;;;;16.55;10.80;;;;;;;20.61;54.37;100284.03;3311502;85;21125;-83
2022/08/26 21:51:10;;;;;;;15.37;9.90;;;;;;;20.56;54.61;100280.20;3288547;84;21006;-83
2022/08/26 21:56:07;;;;;;;14.28;10.45;;;;;;;20.48;54.70;100271.64;3266824;84;21033;-83
2022/08/26 22:00:59;;;;;;;12.88;10.18;;;;;;;20.41;54.76;100276.27;3273894;84;21160;-83
2022/08/26 22:05:51;;;;;;;11.97;9.15;;;;;;;20.33;55.15;100276.48;3252779;85;21545;-82
2022/08/26 22:10:42;;;;;;;10.95;9.13;;;;;;;20.30;55.27;100273.06;3325291;84;22447;-82
2022/08/26 22:15:34;;;;;;;11.45;10.28;;;;;;;20.25;55.27;100270.59;3272381;84;21465;-82
2022/08/26 22:20:25;;;;;;;14.00;9.38;;;;;;;20.19;55.61;100273.39;3315797;83;21053;-83
2022/08/26 22:25:17;;;;;;;17.40;10.03;;;;;;;20.12;55.71;100276.69;3289093;85;21563;-82
2022/08/26 22:30:09;;;;;;;14.53;10.60;;;;;;;20.11;56.04;100278.91;3312470;85;20995;-82
2022/08/26 22:35:01;;;;;;;11.57;9.30;;;;;;;20.06;56.43;100280.81;3218149;84;22609;-82
2022/08/26 22:39:53;;;;;;;11.57;9.70;;;;;;;20.01;56.62;100280.08;3255506;85;20994;-82
2022/08/26 22:44:44;;;;;;;12.53;10.28;;;;;;;19.98;56.66;100278.88;3264606;85;21013;-82
2022/08/26 22:49:35;;;;;;;12.85;8.90;;;;;;;19.96;56.81;100279.34;3213231;84;20971;-82
2022/08/26 22:54:27;;;;;;;13.70;9.83;;;;;;;19.93;57.13;100268.90;3274888;86;21013;-82
2022/08/26 22:59:18;;;;;;;11.73;8.10;;;;;;;19.88;57.13;100276.08;3267467;85;21478;-82
2022/08/26 23:04:10;;;;;;;9.85;8.85;;;;;;;19.89;57.70;100275.15;3262112;85;21065;-82
2022/08/26 23:09:01;;;;;;;11.40;10.10;;;;;;;19.89;57.74;100272.52;3238327;85;20986;-82
2022/08/26 23:13:52;;;;;;;10.48;9.48;;;;;;;19.86;58.07;100255.47;3191398;84;21046;-83
2022/08/26 23:18:44;;;;;;;13.03;9.93;;;;;;;19.79;58.33;100256.95;3257672;85;21025;-82
2022/08/26 23:23:37;;;;;;;11.15;9.53;;;;;;;19.77;58.61;100260.55;3239845;85;21059;-83
2022/08/26 23:28:28;;;;;;;14.00;9.35;;;;;;;19.71;58.63;100256.29;3252476;85;21453;-82
2022/08/26 23:38:55;;;;;;;10.05;8.90;;;;;;;19.64;59.10;100253.41;3321083;85;21268;-83
2022/08/26 23:43:46;;;;;;;11.40;9.88;;;;;;;19.63;59.45;100250.35;3319602;85;21017;-82
2022/08/26 23:48:37;;;;;;;10.72;9.65;;;;;;;19.61;59.64;100254.81;3313318;84;21636;-82
2022/08/26 23:53:28;;;;;;;9.75;8.85;;;;;;;19.55;59.82;100251.03;3319955;84;21013;-82
2022/08/26 23:58:20;;;;;;;10.55;9.18;;;;;;;19.50;59.95;100241.06;3292172;84;21018;-82
